Time;durP1;ratioP1;P1;durP2;ratioP2;P2;SDS_P1;SDS_P2;PMS_P1;PMS_P2;Temp;Humidity;BMP_temperature;BMP_pressure;BME280_temperature;BME280_humidity;BME280_pressure;Samples;Min_cycle;Max_cycle;Signal;HPM_P1;HPM_P2
2023/03/25 00:01:07;;;;;;;12.57;3.38;;;;;;;;;;5058598;28;20495;-38
2023/03/25 00:03:36;;;;;;;15.13;4.22;;;;;;;;;;5060448;28;20481;-38
2023/03/25 00:06:05;;;;;;;10.98;3.83;;;;;;;;;;5053243;28;20087;-38
2023/03/25 00:08:31;;;;;;;8.02;3.28;;;;;;;;;;5039890;28;20117;-42
2023/03/25 00:10:59;;;;;;;7.20;3.38;;;;;;;;;;5040479;28;20418;-38
2023/03/25 00:13:25;;;;;;;8.27;3.10;;;;;;;;;;5037814;28;20132;-38
2023/03/25 00:15:52;;;;;;;8.07;3.13;;;;;;;;;;5037442;28;20033;-39
2023/03/25 00:18:19;;;;;;;6.68;2.90;;;;;;;;;;5036875;28;20092;-40
2023/03/25 00:20:48;;;;;;;6.68;2.78;;;;;;;;;;5041314;28;20037;-38
2023/03/25 00:23:14;;;;;;;9.50;2.58;;;;;;;;;;5040375;28;20029;-39
2023/03/25 00:25:40;;;;;;;6.78;2.78;;;;;;;;;;5038344;28;20498;-38
2023/03/25 00:28:07;;;;;;;6.72;2.67;;;;;;;;;;5040073;28;20428;-39
2023/03/25 00:30:32;;;;;;;9.43;3.40;;;;;;;;;;5042421;28;20422;-38
2023/03/25 00:33:00;;;;;;;8.38;3.80;;;;;;;;;;5042937;28;20032;-43
2023/03/25 00:35:27;;;;;;;8.20;2.70;;;;;;;;;;5038244;28;20041;-40
2023/03/25 00:37:58;;;;;;;8.35;2.78;;;;;;;;;;5039289;28;20031;-43
2023/03/25 00:40:27;;;;;;;8.80;2.50;;;;;;;;;;5046670;28;20041;-38
2023/03/25 00:42:53;;;;;;;4.90;2.50;;;;;;;;;;5043334;28;20039;-37
2023/03/25 00:45:19;;;;;;;4.45;2.90;;;;;;;;;;5044891;28;20036;-39
2023/03/25 00:47:44;;;;;;;5.65;1.85;;;;;;;;;;5041737;28;20067;-39
2023/03/25 00:50:10;;;;;;;5.38;2.50;;;;;;;;;;5041270;28;20035;-38
2023/03/25 00:52:36;;;;;;;4.18;2.25;;;;;;;;;;5045307;28;20029;-38
2023/03/25 00:55:03;;;;;;;3.70;2.03;;;;;;;;;;5044245;28;20029;-38
2023/03/25 00:57:29;;;;;;;5.32;2.17;;;;;;;;;;5042517;28;20052;-38
2023/03/25 00:59:54;;;;;;;4.57;2.63;;;;;;;;;;5044002;28;20033;-41
2023/03/25 01:02:20;;;;;;;4.93;2.53;;;;;;;;;;5045357;28;20039;-38
2023/03/25 01:04:48;;;;;;;4.72;2.17;;;;;;;;;;5044580;28;20025;-42
2023/03/25 01:07:14;;;;;;;6.88;2.47;;;;;;;;;;5044083;28;20701;-38
2023/03/25 01:09:40;;;;;;;2.65;2.33;;;;;;;;;;5047424;28;20021;-38
2023/03/25 01:12:06;;;;;;;5.78;2.67;;;;;;;;;;5041717;28;20391;-38
2023/03/25 01:14:32;;;;;;;4.13;2.40;;;;;;;;;;5045458;28;20029;-38
2023/03/25 01:16:58;;;;;;;8.75;2.65;;;;;;;;;;5044817;28;20073;-38
2023/03/25 01:19:23;;;;;;;7.75;2.80;;;;;;;;;;5044756;28;20470;-38
2023/03/25 01:21:49;;;;;;;4.00;2.35;;;;;;;;;;5040971;28;20048;-39
2023/03/25 01:24:14;;;;;;;4.88;2.53;;;;;;;;;;5040288;28;20025;-38
2023/03/25 01:26:42;;;;;;;7.95;2.47;;;;;;;;;;5040440;28;20037;-38
2023/03/25 01:29:09;;;;;;;8.60;2.88;;;;;;;;;;5043941;28;20025;-39
2023/03/25 01:31:34;;;;;;;6.18;2.20;;;;;;;;;;5040600;28;20160;-38
2023/03/25 01:34:00;;;;;;;4.00;2.08;;;;;;;;;;5044602;28;20500;-38
2023/03/25 01:36:29;;;;;;;3.47;1.77;;;;;;;;;;5053027;28;20482;-38
2023/03/25 01:38:57;;;;;;;3.75;1.60;;;;;;;;;;5055694;28;20476;-38
2023/03/25 01:41:23;;;;;;;4.45;1.70;;;;;;;;;;5057559;28;20028;-38
2023/03/25 01:44:28;;;;;;;5.13;2.47;;;;;;;;;;5063042;28;20126;-38
2023/03/25 01:46:56;;;;;;;3.50;2.53;;;;;;;;;;5057066;28;20032;-38
2023/03/25 01:49:37;;;;;;;3.92;2.50;;;;;;;;;;5061163;28;20392;-38
2023/03/25 01:52:09;;;;;;;3.93;2.00;;;;;;;;;;5059315;28;20041;-38
2023/03/25 01:54:37;;;;;;;6.75;2.58;;;;;;;;;;5059291;28;20094;-42
2023/03/25 01:57:05;;;;;;;2.45;2.00;;;;;;;;;;5045434;28;20633;-38
2023/03/25 01:59:31;;;;;;;2.55;1.75;;;;;;;;;;5040253;28;20027;-38
2023/03/25 02:02:01;;;;;;;5.80;1.77;;;;;;;;;;5054467;28;20037;-39
2023/03/25 02:04:57;;;;;;;3.78;1.85;;;;;;;;;;5063668;28;20025;-38
2023/03/25 02:07:29;;;;;;;4.70;1.50;;;;;;;;;;5061530;28;20524;-37
2023/03/25 02:10:00;;;;;;;3.50;1.50;;;;;;;;;;5059233;28;20028;-38
2023/03/25 02:12:26;;;;;;;2.75;1.83;;;;;;;;;;5063906;28;20048;-38
2023/03/25 02:14:52;;;;;;;6.65;1.80;;;;;;;;;;5059880;28;20474;-40
2023/03/25 02:17:51;;;;;;;3.67;2.10;;;;;;;;;;5063942;28;20041;-38
2023/03/25 02:20:43;;;;;;;4.18;1.92;;;;;;;;;;5057990;28;20040;-38
2023/03/25 02:23:27;;;;;;;6.45;1.90;;;;;;;;;;5038655;28;20025;-39
2023/03/25 02:26:20;;;;;;;4.05;1.80;;;;;;;;;;5040723;28;20425;-38
2023/03/25 02:29:13;;;;;;;5.55;1.88;;;;;;;;;;5046764;28;20029;-38
2023/03/25 02:32:14;;;;;;;1.63;1.35;;;;;;;;;;5042038;28;20067;-38
2023/03/25 02:35:12;;;;;;;4.68;1.80;;;;;;;;;;5037458;28;20066;-38
2023/03/25 02:37:59;;;;;;;4.88;2.00;;;;;;;;;;4996259;28;20060;-38
2023/03/25 02:40:30;;;;;;;5.82;1.77;;;;;;;;;;4996966;28;20041;-38
2023/03/25 02:43:08;;;;;;;3.53;1.53;;;;;;;;;;5017336;28;20033;-38
2023/03/25 02:45:39;;;;;;;4.00;1.67;;;;;;;;;;5017233;28;20435;-41
2023/03/25 02:48:11;;;;;;;3.92;1.90;;;;;;;;;;5017565;28;20604;-38
2023/03/25 02:50:45;;;;;;;5.00;1.73;;;;;;;;;;5019525;28;20049;-38
2023/03/25 02:53:17;;;;;;;2.55;1.42;;;;;;;;;;5018482;28;20495;-38
2023/03/25 02:55:46;;;;;;;4.18;2.03;;;;;;;;;;5016030;28;20651;-37
2023/03/25 02:58:15;;;;;;;5.88;1.40;;;;;;;;;;5018506;28;20022;-38
2023/03/25 03:00:42;;;;;;;2.83;1.45;;;;;;;;;;5017341;28;20044;-43
2023/03/25 03:03:07;;;;;;;2.45;1.65;;;;;;;;;;5018845;28;20087;-38
2023/03/25 03:05:43;;;;;;;3.83;1.85;;;;;;;;;;5017662;28;20780;-38
2023/03/25 03:08:26;;;;;;;2.45;1.42;;;;;;;;;;5014793;28;20576;-38
2023/03/25 03:11:11;;;;;;;2.38;1.50;;;;;;;;;;5018673;28;20497;-38
2023/03/25 03:13:48;;;;;;;3.50;1.55;;;;;;;;;;5034767;28;20048;-38
2023/03/25 03:16:31;;;;;;;3.75;1.65;;;;;;;;;;5054188;28;20122;-47
2023/03/25 03:19:13;;;;;;;2.55;1.55;;;;;;;;;;5057746;28;20095;-38
2023/03/25 03:21:50;;;;;;;2.25;1.40;;;;;;;;;;5059553;28;20119;-39
2023/03/25 03:24:32;;;;;;;4.40;1.67;;;;;;;;;;5060553;28;20025;-38
2023/03/25 03:27:32;;;;;;;3.33;1.40;;;;;;;;;;5060051;28;20075;-38
2023/03/25 03:30:12;;;;;;;5.95;1.70;;;;;;;;;;5057804;28;20036;-38
2023/03/25 03:33:00;;;;;;;2.42;1.55;;;;;;;;;;5060191;28;20036;-39
2023/03/25 03:35:38;;;;;;;4.50;2.00;;;;;;;;;;5060573;28;20037;-41
2023/03/25 03:38:10;;;;;;;3.58;1.77;;;;;;;;;;5058858;28;20024;-43
2023/03/25 03:40:38;;;;;;;1.67;1.58;;;;;;;;;;5059201;28;20033;-38
2023/03/25 03:43:12;;;;;;;3.80;1.77;;;;;;;;;;5054594;28;20027;-39
2023/03/25 03:45:40;;;;;;;3.63;1.67;;;;;;;;;;5061026;28;20053;-47
2023/03/25 03:48:14;;;;;;;2.08;1.38;;;;;;;;;;5063404;28;20037;-40
2023/03/25 03:50:52;;;;;;;4.03;1.73;;;;;;;;;;5060736;28;20620;-39
2023/03/25 03:53:29;;;;;;;3.13;1.52;;;;;;;;;;5061635;28;20048;-41
2023/03/25 03:56:11;;;;;;;4.20;1.83;;;;;;;;;;5056550;28;20501;-42
2023/03/25 03:58:42;;;;;;;3.55;1.48;;;;;;;;;;5058448;28;20377;-39
2023/03/25 04:01:32;;;;;;;8.05;2.20;;;;;;;;;;5057984;28;20040;-38
2023/03/25 04:04:09;;;;;;;3.30;1.65;;;;;;;;;;5061922;28;20093;-39
2023/03/25 04:06:45;;;;;;;5.65;1.80;;;;;;;;;;5060523;28;20040;-38
2023/03/25 04:09:53;;;;;;;3.58;1.85;;;;;;;;;;5059958;28;20588;-40
2023/03/25 04:12:31;;;;;;;7.68;1.65;;;;;;;;;;5013123;28;20084;-38
2023/03/25 04:15:00;;;;;;;5.97;2.15;;;;;;;;;;5016683;28;20112;-38
2023/03/25 04:17:28;;;;;;;2.65;1.45;;;;;;;;;;5018667;28;20046;-39
2023/03/25 04:19:57;;;;;;;8.20;1.85;;;;;;;;;;5022765;28;20037;-42
2023/03/25 04:22:23;;;;;;;3.20;1.55;;;;;;;;;;5021602;28;20044;-41
2023/03/25 04:24:50;;;;;;;5.18;1.70;;;;;;;;;;5019458;28;20033;-39
2023/03/25 04:27:17;;;;;;;9.75;1.92;;;;;;;;;;5019068;28;20104;-41
2023/03/25 04:29:43;;;;;;;4.60;1.48;;;;;;;;;;5025469;28;20576;-39
2023/03/25 04:32:10;;;;;;;3.78;1.40;;;;;;;;;;5018527;28;20042;-45
2023/03/25 04:34:35;;;;;;;7.35;1.88;;;;;;;;;;5022356;28;20480;-40
2023/03/25 04:37:01;;;;;;;5.13;1.85;;;;;;;;;;5017557;28;20038;-44
2023/03/25 04:39:28;;;;;;;2.47;1.67;;;;;;;;;;5017147;28;20120;-39
2023/03/25 04:41:55;;;;;;;3.33;1.65;;;;;;;;;;5022023;28;20053;-44
2023/03/25 04:44:24;;;;;;;5.72;1.65;;;;;;;;;;5021344;28;20021;-40
2023/03/25 04:46:51;;;;;;;7.78;1.63;;;;;;;;;;5022397;28;20046;-41
2023/03/25 04:49:19;;;;;;;5.18;1.98;;;;;;;;;;5040039;28;20029;-42
2023/03/25 04:51:50;;;;;;;9.13;2.10;;;;;;;;;;5041699;28;20127;-44
2023/03/25 04:54:16;;;;;;;3.28;1.33;;;;;;;;;;5042797;28;20033;-39
2023/03/25 04:56:41;;;;;;;3.35;1.52;;;;;;;;;;5043374;28;20061;-39
2023/03/25 04:59:08;;;;;;;4.82;1.60;;;;;;;;;;5041286;28;20948;-45
2023/03/25 05:01:36;;;;;;;6.45;2.13;;;;;;;;;;5047114;28;20041;-39
2023/03/25 05:04:04;;;;;;;5.00;1.50;;;;;;;;;;5044803;28;20025;-39
2023/03/25 05:06:37;;;;;;;5.43;1.95;;;;;;;;;;5046992;28;20072;-40
2023/03/25 05:09:04;;;;;;;2.08;1.33;;;;;;;;;;5042349;28;20030;-40
2023/03/25 05:11:31;;;;;;;5.22;1.70;;;;;;;;;;5045413;28;20529;-39
2023/03/25 05:13:56;;;;;;;4.68;2.10;;;;;;;;;;5040777;28;20052;-44
2023/03/25 05:16:22;;;;;;;4.65;2.03;;;;;;;;;;5045186;28;20406;-41
2023/03/25 05:18:48;;;;;;;3.00;1.30;;;;;;;;;;5040746;28;20041;-39
2023/03/25 05:21:14;;;;;;;2.90;1.70;;;;;;;;;;5040704;28;20069;-41
2023/03/25 05:23:40;;;;;;;5.40;1.52;;;;;;;;;;5046344;28;20420;-40
2023/03/25 05:26:06;;;;;;;5.82;1.88;;;;;;;;;;5043606;28;20098;-42
2023/03/25 05:28:32;;;;;;;2.50;1.30;;;;;;;;;;5046519;28;20029;-39
2023/03/25 05:30:58;;;;;;;4.25;1.65;;;;;;;;;;5043665;28;20146;-40
2023/03/25 05:33:24;;;;;;;9.45;1.48;;;;;;;;;;5043603;28;20474;-39
2023/03/25 05:35:49;;;;;;;3.30;1.40;;;;;;;;;;5042636;28;20097;-39
2023/03/25 05:38:18;;;;;;;2.90;1.63;;;;;;;;;;5040172;28;20053;-44
2023/03/25 05:40:47;;;;;;;7.13;1.50;;;;;;;;;;5041289;28;20036;-48
2023/03/25 05:43:14;;;;;;;7.75;2.17;;;;;;;;;;5039993;28;20028;-41
2023/03/25 05:45:40;;;;;;;6.00;1.50;;;;;;;;;;5041048;28;20041;-42
2023/03/25 05:48:07;;;;;;;5.32;1.73;;;;;;;;;;5046744;28;20456;-41
2023/03/25 05:50:32;;;;;;;6.63;1.60;;;;;;;;;;5039927;28;20406;-39
2023/03/25 05:52:58;;;;;;;3.25;1.80;;;;;;;;;;5044255;28;20040;-42
2023/03/25 05:55:24;;;;;;;6.78;1.90;;;;;;;;;;5046067;28;20150;-39
2023/03/25 05:57:50;;;;;;;7.05;1.70;;;;;;;;;;5043617;28;20178;-44
2023/03/25 06:00:20;;;;;;;7.28;1.63;;;;;;;;;;5045724;28;20103;-43
2023/03/25 06:02:47;;;;;;;6.28;1.98;;;;;;;;;;5061930;28;20037;-39
2023/03/25 06:05:13;;;;;;;9.50;1.50;;;;;;;;;;5056709;28;20078;-39
2023/03/25 06:07:44;;;;;;;7.22;1.80;;;;;;;;;;5046375;28;20527;-39
2023/03/25 06:10:10;;;;;;;3.75;1.45;;;;;;;;;;5046930;28;20100;-45
2023/03/25 06:12:37;;;;;;;10.88;2.63;;;;;;;;;;5045538;28;20124;-41
2023/03/25 06:15:08;;;;;;;7.47;2.20;;;;;;;;;;5047733;28;20032;-39
2023/03/25 06:17:37;;;;;;;5.43;1.83;;;;;;;;;;5045518;28;20551;-40
2023/03/25 06:20:09;;;;;;;8.15;2.22;;;;;;;;;;5042534;28;20087;-39
2023/03/25 06:22:44;;;;;;;5.07;1.75;;;;;;;;;;5054722;28;20040;-40
2023/03/25 06:25:19;;;;;;;3.92;1.67;;;;;;;;;;5052858;28;20129;-41
2023/03/25 06:27:47;;;;;;;5.97;2.35;;;;;;;;;;5046320;28;20064;-42
2023/03/25 06:30:18;;;;;;;9.82;2.00;;;;;;;;;;5045292;28;20033;-40
2023/03/25 06:32:43;;;;;;;5.97;1.67;;;;;;;;;;5041509;28;20028;-39
2023/03/25 06:35:10;;;;;;;3.90;1.73;;;;;;;;;;5044519;28;20045;-39
2023/03/25 06:37:37;;;;;;;5.70;1.88;;;;;;;;;;5042799;28;20033;-45
2023/03/25 06:40:04;;;;;;;9.15;1.73;;;;;;;;;;5043503;28;20085;-39
2023/03/25 06:42:29;;;;;;;5.45;1.88;;;;;;;;;;5046884;28;20059;-41
2023/03/25 06:44:55;;;;;;;9.80;2.15;;;;;;;;;;5045706;28;20037;-42
2023/03/25 06:47:21;;;;;;;5.45;1.52;;;;;;;;;;5044504;28;20450;-42
2023/03/25 06:49:46;;;;;;;3.67;1.67;;;;;;;;;;5044104;28;20020;-40
2023/03/25 06:52:12;;;;;;;5.38;2.10;;;;;;;;;;5038487;28;20037;-40
2023/03/25 06:54:38;;;;;;;4.20;1.73;;;;;;;;;;5036907;28;20390;-42
2023/03/25 06:57:04;;;;;;;8.57;2.22;;;;;;;;;;5040767;28;20041;-41
2023/03/25 06:59:29;;;;;;;3.58;1.58;;;;;;;;;;5041941;28;20025;-43
2023/03/25 07:01:55;;;;;;;4.05;1.50;;;;;;;;;;5055133;28;20440;-39
2023/03/25 07:04:21;;;;;;;4.03;1.65;;;;;;;;;;5056541;28;20103;-40
2023/03/25 07:06:46;;;;;;;7.75;1.88;;;;;;;;;;5062342;28;20076;-39
2023/03/25 07:09:12;;;;;;;5.00;1.50;;;;;;;;;;5061655;28;20119;-44
2023/03/25 07:11:37;;;;;;;3.22;1.75;;;;;;;;;;5059154;28;20051;-43
2023/03/25 07:14:02;;;;;;;4.65;1.45;;;;;;;;;;5061113;28;20067;-48
2023/03/25 07:16:28;;;;;;;9.35;1.73;;;;;;;;;;5043410;28;20029;-43
2023/03/25 07:18:55;;;;;;;5.38;1.80;;;;;;;;;;5037823;28;20079;-41
2023/03/25 07:21:21;;;;;;;8.52;2.20;;;;;;;;;;5041934;28;20033;-42
2023/03/25 07:23:47;;;;;;;3.22;2.13;;;;;;;;;;5040233;28;20029;-47
2023/03/25 07:26:13;;;;;;;5.15;2.03;;;;;;;;;;5042828;28;20490;-39
2023/03/25 07:28:39;;;;;;;8.32;2.42;;;;;;;;;;5046508;28;20041;-45
2023/03/25 07:31:09;;;;;;;5.05;1.77;;;;;;;;;;5042257;28;20094;-40
2023/03/25 07:33:35;;;;;;;5.00;2.00;;;;;;;;;;5044194;28;20036;-40
2023/03/25 07:36:01;;;;;;;6.50;2.13;;;;;;;;;;5037486;28;20038;-39
2023/03/25 07:38:26;;;;;;;7.38;2.38;;;;;;;;;;5041541;28;20398;-44
2023/03/25 07:40:52;;;;;;;9.32;1.80;;;;;;;;;;5041708;28;20056;-43
2023/03/25 07:43:17;;;;;;;7.07;2.38;;;;;;;;;;5042392;28;20176;-51
2023/03/25 07:45:43;;;;;;;7.07;1.85;;;;;;;;;;5046012;28;20041;-41
2023/03/25 07:48:13;;;;;;;12.10;3.00;;;;;;;;;;5060103;28;20029;-40
2023/03/25 07:50:38;;;;;;;13.15;2.80;;;;;;;;;;5061729;28;20047;-39
2023/03/25 07:53:04;;;;;;;9.02;2.90;;;;;;;;;;5063240;28;20024;-43
2023/03/25 07:55:29;;;;;;;9.38;2.80;;;;;;;;;;5060226;28;20029;-40
2023/03/25 07:57:57;;;;;;;5.40;2.20;;;;;;;;;;5049032;28;20041;-44
2023/03/25 08:00:22;;;;;;;5.78;1.95;;;;;;;;;;5054081;28;20048;-45
2023/03/25 08:02:47;;;;;;;11.45;2.00;;;;;;;;;;5063512;28;20028;-40
2023/03/25 08:05:19;;;;;;;10.90;1.98;;;;;;;;;;5056323;28;20035;-44
2023/03/25 08:07:46;;;;;;;4.32;1.90;;;;;;;;;;5040817;28;20068;-43
2023/03/25 08:10:14;;;;;;;6.00;1.67;;;;;;;;;;5042063;28;21149;-51
2023/03/25 08:12:40;;;;;;;7.45;1.73;;;;;;;;;;5048285;28;20045;-39
2023/03/25 08:15:06;;;;;;;5.45;1.60;;;;;;;;;;5044764;28;20045;-44
2023/03/25 08:17:31;;;;;;;5.80;1.70;;;;;;;;;;5044376;28;20564;-39
2023/03/25 08:19:57;;;;;;;3.00;1.35;;;;;;;;;;5046127;28;20226;-39
2023/03/25 08:22:23;;;;;;;5.28;1.67;;;;;;;;;;5038498;28;20390;-39
2023/03/25 08:24:48;;;;;;;5.63;1.70;;;;;;;;;;5040241;28;20183;-39
2023/03/25 08:27:14;;;;;;;7.03;1.67;;;;;;;;;;5040384;28;20033;-38
2023/03/25 08:29:39;;;;;;;6.13;1.70;;;;;;;;;;5038233;28;20128;-39
2023/03/25 08:32:05;;;;;;;4.30;1.58;;;;;;;;;;5040882;28;21090;-39
2023/03/25 08:34:33;;;;;;;7.38;2.20;;;;;;;;;;5043364;28;20032;-48
2023/03/25 08:36:58;;;;;;;3.58;1.73;;;;;;;;;;5037138;28;20045;-44
2023/03/25 08:39:29;;;;;;;5.90;1.50;;;;;;;;;;5040706;28;20033;-39
2023/03/25 08:41:56;;;;;;;6.10;1.85;;;;;;;;;;5052617;28;20090;-44
2023/03/25 08:44:21;;;;;;;7.32;1.83;;;;;;;;;;5061617;28;20029;-39
2023/03/25 08:46:46;;;;;;;2.35;1.40;;;;;;;;;;5062072;28;20427;-40
2023/03/25 08:49:12;;;;;;;3.47;1.42;;;;;;;;;;5057660;28;20631;-46
2023/03/25 08:51:37;;;;;;;5.78;1.60;;;;;;;;;;5062294;28;20044;-43
2023/03/25 08:54:03;;;;;;;3.00;1.10;;;;;;;;;;5064473;28;20099;-40
2023/03/25 08:56:28;;;;;;;5.18;1.42;;;;;;;;;;5059084;28;20041;-39
2023/03/25 08:58:54;;;;;;;3.20;1.50;;;;;;;;;;5062184;28;20039;-38
2023/03/25 09:01:20;;;;;;;9.85;1.80;;;;;;;;;;5057027;28;20150;-37
2023/03/25 09:03:46;;;;;;;3.88;1.40;;;;;;;;;;5062036;28;20041;-45
2023/03/25 09:06:11;;;;;;;5.13;1.48;;;;;;;;;;5064424;28;20516;-39
2023/03/25 09:08:37;;;;;;;13.43;1.98;;;;;;;;;;5057099;28;20043;-37
2023/03/25 09:11:02;;;;;;;4.57;1.67;;;;;;;;;;5054388;28;20052;-39
2023/03/25 09:13:28;;;;;;;3.38;1.42;;;;;;;;;;5055166;28;20041;-42
2023/03/25 09:15:53;;;;;;;4.80;1.48;;;;;;;;;;5060865;28;20067;-38
2023/03/25 09:18:19;;;;;;;4.78;1.70;;;;;;;;;;5063643;28;20037;-43
2023/03/25 09:20:47;;;;;;;6.22;1.75;;;;;;;;;;5051183;28;20378;-38
2023/03/25 09:23:14;;;;;;;7.97;1.52;;;;;;;;;;5036180;28;20068;-38
2023/03/25 09:25:41;;;;;;;3.80;1.23;;;;;;;;;;5050083;28;20041;-39
2023/03/25 09:28:07;;;;;;;4.72;1.52;;;;;;;;;;5061827;28;20052;-38
2023/03/25 09:30:32;;;;;;;5.72;1.65;;;;;;;;;;5064501;28;20064;-42
2023/03/25 09:32:59;;;;;;;4.28;1.30;;;;;;;;;;5056751;28;20075;-43
2023/03/25 09:35:25;;;;;;;4.78;1.02;;;;;;;;;;5056454;28;20120;-38
2023/03/25 09:37:50;;;;;;;5.32;1.63;;;;;;;;;;5058180;28;20111;-38
2023/03/25 09:40:19;;;;;;;5.13;1.50;;;;;;;;;;5057691;28;20025;-38
2023/03/25 09:43:03;;;;;;;5.07;1.40;;;;;;;;;;5056147;28;20079;-38
2023/03/25 09:45:39;;;;;;;4.15;1.30;;;;;;;;;;5055693;28;20055;-40
2023/03/25 09:48:26;;;;;;;11.00;1.80;;;;;;;;;;5062751;28;20558;-38
2023/03/25 09:50:51;;;;;;;4.50;1.75;;;;;;;;;;5046754;28;20579;-38
2023/03/25 09:53:38;;;;;;;3.30;1.50;;;;;;;;;;5034900;28;20021;-38
2023/03/25 09:56:09;;;;;;;8.50;1.50;;;;;;;;;;5038599;28;20443;-41
2023/03/25 09:59:07;;;;;;;3.20;1.23;;;;;;;;;;5037547;28;20025;-41
2023/03/25 10:01:44;;;;;;;5.95;1.52;;;;;;;;;;5045032;28;20404;-39
2023/03/25 10:04:44;;;;;;;5.22;1.30;;;;;;;;;;5055692;28;20032;-38
2023/03/25 10:07:29;;;;;;;5.07;1.48;;;;;;;;;;5060500;28;20044;-38
2023/03/25 10:10:05;;;;;;;5.90;1.35;;;;;;;;;;5060837;28;20040;-39
2023/03/25 10:12:40;;;;;;;2.63;1.33;;;;;;;;;;5062412;28;20052;-41
2023/03/25 10:15:16;;;;;;;6.63;1.40;;;;;;;;;;5057884;28;20044;-39
2023/03/25 10:17:47;;;;;;;2.35;1.08;;;;;;;;;;5061987;28;20036;-39
2023/03/25 10:20:20;;;;;;;3.95;1.50;;;;;;;;;;5055479;28;20028;-39
2023/03/25 10:23:20;;;;;;;5.30;1.33;;;;;;;;;;5056148;28;20159;-38
2023/03/25 10:25:52;;;;;;;1.92;1.15;;;;;;;;;;5056181;28;20118;-45
2023/03/25 10:28:27;;;;;;;3.10;1.20;;;;;;;;;;5060270;28;20028;-39
2023/03/25 10:30:53;;;;;;;4.35;1.30;;;;;;;;;;5060967;28;20040;-38
2023/03/25 10:33:38;;;;;;;1.58;0.90;;;;;;;;;;5059393;28;20028;-41
2023/03/25 10:36:10;;;;;;;2.20;1.10;;;;;;;;;;5055436;28;20029;-39
2023/03/25 10:38:36;;;;;;;4.68;1.80;;;;;;;;;;5058629;28;20040;-42
2023/03/25 10:41:36;;;;;;;1.98;1.10;;;;;;;;;;5059241;28;20040;-38
2023/03/25 10:44:10;;;;;;;2.45;1.10;;;;;;;;;;5061374;28;20035;-38
2023/03/25 10:47:14;;;;;;;3.05;1.45;;;;;;;;;;5057371;28;20556;-38
2023/03/25 10:49:41;;;;;;;5.80;1.17;;;;;;;;;;5037262;28;20029;-39
2023/03/25 10:52:08;;;;;;;1.58;1.05;;;;;;;;;;5034484;28;20051;-38
2023/03/25 10:54:38;;;;;;;3.38;1.40;;;;;;;;;;5035784;28;20120;-40
2023/03/25 10:57:09;;;;;;;7.47;1.35;;;;;;;;;;5036847;28;20041;-40
2023/03/25 10:59:49;;;;;;;5.43;1.40;;;;;;;;;;5039052;28;20397;-40
2023/03/25 11:02:19;;;;;;;7.13;1.70;;;;;;;;;;5027027;28;20552;-37
2023/03/25 11:04:47;;;;;;;4.28;1.70;;;;;;;;;;5034517;28;20525;-38
2023/03/25 11:07:19;;;;;;;4.45;1.58;;;;;;;;;;5037487;28;20437;-40
2023/03/25 11:09:45;;;;;;;5.00;1.50;;;;;;;;;;5036882;28;20036;-39
2023/03/25 11:12:10;;;;;;;5.40;1.50;;;;;;;;;;5039858;28;20037;-38
2023/03/25 11:14:38;;;;;;;6.05;1.42;;;;;;;;;;5033348;28;20037;-38
2023/03/25 11:17:11;;;;;;;3.88;1.42;;;;;;;;;;5034300;28;20079;-38
2023/03/25 11:19:51;;;;;;;7.30;1.45;;;;;;;;;;5036296;28;20670;-42
2023/03/25 11:22:28;;;;;;;6.40;1.33;;;;;;;;;;5035178;28;20041;-39
2023/03/25 11:25:06;;;;;;;4.50;1.48;;;;;;;;;;5054240;28;20043;-39
2023/03/25 11:27:42;;;;;;;8.25;1.85;;;;;;;;;;5038265;28;20049;-40
2023/03/25 11:30:15;;;;;;;7.65;1.45;;;;;;;;;;5032747;28;20048;-39
2023/03/25 11:32:41;;;;;;;7.28;1.77;;;;;;;;;;5039243;28;20024;-42
2023/03/25 11:35:13;;;;;;;3.08;1.35;;;;;;;;;;5037888;28;20037;-39
2023/03/25 11:37:45;;;;;;;6.90;1.70;;;;;;;;;;5039507;28;20059;-46
2023/03/25 11:40:16;;;;;;;5.88;1.80;;;;;;;;;;5036655;28;20021;-39
2023/03/25 11:42:51;;;;;;;3.47;1.70;;;;;;;;;;5039356;28;20021;-39
2023/03/25 11:45:23;;;;;;;6.82;1.75;;;;;;;;;;5040206;28;20025;-41
2023/03/25 11:47:49;;;;;;;7.93;1.58;;;;;;;;;;5042900;28;20484;-39
2023/03/25 11:50:34;;;;;;;8.65;1.63;;;;;;;;;;5040749;28;20082;-39
2023/03/25 11:53:02;;;;;;;6.75;1.90;;;;;;;;;;5043881;28;20041;-39
2023/03/25 11:55:34;;;;;;;5.38;1.50;;;;;;;;;;5038119;28;20410;-42
2023/03/25 11:58:00;;;;;;;7.28;1.30;;;;;;;;;;5041285;28;20068;-39
2023/03/25 12:00:36;;;;;;;5.93;1.73;;;;;;;;;;5043210;28;20143;-40
2023/03/25 12:03:05;;;;;;;5.55;1.23;;;;;;;;;;5054689;28;20044;-39
2023/03/25 12:05:32;;;;;;;6.82;1.55;;;;;;;;;;5055225;28;20057;-39
2023/03/25 12:08:14;;;;;;;3.88;1.42;;;;;;;;;;5044022;28;20033;-38
2023/03/25 12:11:05;;;;;;;2.90;1.30;;;;;;;;;;5045031;28;20037;-39
2023/03/25 12:13:31;;;;;;;5.57;1.42;;;;;;;;;;5041186;28;20219;-42
2023/03/25 12:15:59;;;;;;;2.85;1.20;;;;;;;;;;5042204;28;20148;-42
2023/03/25 12:18:40;;;;;;;3.55;1.20;;;;;;;;;;5045773;28;20032;-39
2023/03/25 12:21:15;;;;;;;3.75;1.35;;;;;;;;;;5044232;28;20049;-40
2023/03/25 12:23:55;;;;;;;7.30;1.80;;;;;;;;;;5060272;28;20036;-42
2023/03/25 12:26:43;;;;;;;5.18;1.55;;;;;;;;;;5057751;28;20044;-39
2023/03/25 12:29:16;;;;;;;5.88;1.48;;;;;;;;;;5061790;28;20488;-39
2023/03/25 12:32:04;;;;;;;4.88;1.40;;;;;;;;;;5063617;28;20037;-39
2023/03/25 12:34:51;;;;;;;6.57;1.13;;;;;;;;;;5061391;28;20040;-39
2023/03/25 12:37:39;;;;;;;6.80;1.23;;;;;;;;;;5056650;28;20079;-39
2023/03/25 12:40:24;;;;;;;4.63;1.30;;;;;;;;;;5057589;28;20024;-39
2023/03/25 12:43:13;;;;;;;9.15;1.52;;;;;;;;;;5060674;28;20028;-39
2023/03/25 12:46:23;;;;;;;9.60;2.70;;;;;;;;;;5061054;28;20048;-39
2023/03/25 12:49:04;;;;;;;8.32;1.42;;;;;;;;;;5060507;28;20181;-39
2023/03/25 12:51:48;;;;;;;3.47;1.60;;;;;;;;;;5063777;28;20040;-39
2023/03/25 12:54:45;;;;;;;4.03;1.50;;;;;;;;;;5066199;28;20052;-39
2023/03/25 12:57:40;;;;;;;5.47;1.90;;;;;;;;;;5064212;28;20051;-39
2023/03/25 13:00:06;;;;;;;2.22;1.10;;;;;;;;;;5058228;28;20806;-39
2023/03/25 13:02:57;;;;;;;6.13;1.35;;;;;;;;;;5064258;28;20032;-39
2023/03/25 13:05:59;;;;;;;7.45;1.50;;;;;;;;;;5057652;28;20413;-39
2023/03/25 13:08:42;;;;;;;5.72;1.73;;;;;;;;;;5045798;28;20044;-44
2023/03/25 13:11:22;;;;;;;6.65;1.83;;;;;;;;;;5044552;28;20041;-39
2023/03/25 13:13:50;;;;;;;4.63;1.65;;;;;;;;;;5041405;28;20659;-39
2023/03/25 13:16:23;;;;;;;4.70;1.35;;;;;;;;;;5043005;28;20033;-39
2023/03/25 13:19:09;;;;;;;4.00;1.55;;;;;;;;;;5044336;28;20029;-39
2023/03/25 13:21:37;;;;;;;4.55;1.55;;;;;;;;;;5039791;28;20053;-39
2023/03/25 13:24:20;;;;;;;8.35;1.40;;;;;;;;;;5045840;28;20485;-39
2023/03/25 13:26:49;;;;;;;7.13;1.80;;;;;;;;;;5044085;28;20041;-39
2023/03/25 13:29:17;;;;;;;5.13;1.70;;;;;;;;;;5045531;28;20704;-39
2023/03/25 13:31:45;;;;;;;3.15;1.55;;;;;;;;;;5043267;28;20111;-39
2023/03/25 13:34:10;;;;;;;4.85;2.05;;;;;;;;;;5037250;28;20478;-39
2023/03/25 13:37:05;;;;;;;6.63;2.08;;;;;;;;;;5043880;28;20056;-39
2023/03/25 13:39:57;;;;;;;4.47;1.63;;;;;;;;;;5003638;28;20065;-39
2023/03/25 13:42:45;;;;;;;5.47;1.77;;;;;;;;;;4986024;28;21091;-39
2023/03/25 13:45:17;;;;;;;4.28;1.60;;;;;;;;;;4985993;28;20464;-39
2023/03/25 13:48:05;;;;;;;7.55;1.58;;;;;;;;;;4986725;28;20038;-39
2023/03/25 13:50:31;;;;;;;4.60;1.50;;;;;;;;;;4983283;28;20054;-38
2023/03/25 13:53:08;;;;;;;3.83;1.25;;;;;;;;;;4986343;28;20046;-38
2023/03/25 13:55:39;;;;;;;6.10;1.80;;;;;;;;;;4984922;28;20042;-39
2023/03/25 13:58:23;;;;;;;2.83;1.60;;;;;;;;;;4984857;28;20043;-39
2023/03/25 14:01:42;;;;;;;5.45;1.60;;;;;;;;;;4981212;28;20125;-39
2023/03/25 14:04:16;;;;;;;5.45;1.40;;;;;;;;;;4965470;28;20045;-39
2023/03/25 14:07:03;;;;;;;4.22;1.83;;;;;;;;;;4963786;28;20050;-38
2023/03/25 14:09:51;;;;;;;4.90;1.63;;;;;;;;;;4965642;28;20035;-39
2023/03/25 14:12:20;;;;;;;4.07;1.77;;;;;;;;;;4965009;28;20063;-39
2023/03/25 14:15:03;;;;;;;5.50;1.30;;;;;;;;;;4965223;28;20038;-38
2023/03/25 14:17:30;;;;;;;11.40;1.88;;;;;;;;;;4995153;28;20132;-39
2023/03/25 14:19:58;;;;;;;3.17;1.42;;;;;;;;;;5023690;28;20044;-39
2023/03/25 14:22:28;;;;;;;7.13;1.70;;;;;;;;;;5038047;28;20204;-39
2023/03/25 14:24:55;;;;;;;2.20;1.30;;;;;;;;;;5034632;28;20045;-39
2023/03/25 14:27:28;;;;;;;3.53;1.58;;;;;;;;;;5034415;28;20072;-39
2023/03/25 14:30:17;;;;;;;3.55;1.45;;;;;;;;;;5029594;28;20041;-39
2023/03/25 14:32:44;;;;;;;5.57;1.25;;;;;;;;;;5035892;28;20053;-43
2023/03/25 14:35:37;;;;;;;13.38;1.70;;;;;;;;;;5035124;28;20037;-39
2023/03/25 14:38:08;;;;;;;5.13;1.67;;;;;;;;;;5046341;28;20076;-39
2023/03/25 14:40:45;;;;;;;2.10;1.23;;;;;;;;;;5057158;28;20086;-42
2023/03/25 14:43:38;;;;;;;5.03;1.50;;;;;;;;;;5056683;28;20032;-39
2023/03/25 14:46:10;;;;;;;3.42;1.52;;;;;;;;;;5062128;28;20454;-39
2023/03/25 14:49:08;;;;;;;4.63;1.63;;;;;;;;;;5057164;28;20335;-39
2023/03/25 14:51:33;;;;;;;5.32;1.65;;;;;;;;;;5055495;28;20043;-39
2023/03/25 14:54:02;;;;;;;3.05;1.30;;;;;;;;;;5061841;28;20420;-39
2023/03/25 14:56:35;;;;;;;7.88;2.20;;;;;;;;;;5058397;28;20585;-39
2023/03/25 14:59:09;;;;;;;14.32;2.00;;;;;;;;;;5058980;28;20480;-39
2023/03/25 15:01:36;;;;;;;3.60;1.45;;;;;;;;;;5059365;28;20037;-39
2023/03/25 15:04:24;;;;;;;6.82;2.25;;;;;;;;;;5059585;28;20457;-39
2023/03/25 15:06:50;;;;;;;15.20;2.08;;;;;;;;;;5058095;28;20028;-39
2023/03/25 15:09:17;;;;;;;15.57;2.40;;;;;;;;;;5060345;28;20561;-39
2023/03/25 15:12:01;;;;;;;6.88;1.80;;;;;;;;;;5061500;28;20037;-41
2023/03/25 15:14:30;;;;;;;7.50;1.52;;;;;;;;;;5064098;28;20052;-41